CheckWX is a tool to help pilots better visualize weather data.  It is not intended as a substitute for an official pre-flight weather briefing.

14:52:13 UTC

PABI TAF
Allen AAF Airport
Delta Junction Ft Greely, Alaska, USA
TAF PABI 230600Z 2306/2412 11015KT 9999 SCT120 BKN200 QNH2958INS BECMG 2402/2403 11015G25KT 9999 SCT120 BKN150 QNH2972INS BECMG 2403/2404 11025G35KT 9999 SCT120 BKN150 QNH2973INS TX13/2400Z TN03/2315Z LAST NO AMDS AFT 2306 NEXT 2514

Mar-23@
06:00 UTC

Mar-23 @ 06:00 UTC

Mar-24@
02:00 UTC

Mar-24 @ 02:00 UTC

TAF PABI 230600Z 2306/2412 11015KT 9999 SCT120 BKN200 QNH2958INS
Wind
  • 110° at 15 KTS
Cloud Levels
  • Scattered at 12,000' AGL
  • Broken at 20,000' AGL

Mar-24@
02:00 UTC

Mar-24 @ 02:00 UTC

Mar-24@
03:00 UTC

Mar-24 @ 03:00 UTC

BECMG 2402/2403 11015G25KT 9999 SCT120 BKN150 QNH2972INS

Becoming

Becoming Conditions expected by Sun, Mar 24, 2019 @ 03:00 UTC

Wind
  • 110° at 15 KTS
  • {Gusting to 25 KTS
Cloud Levels
  • Scattered at 12,000' AGL
  • Broken at 15,000' AGL

Mar-24@
03:00 UTC

Mar-24 @ 03:00 UTC

Mar-24@
12:00 UTC

Mar-24 @ 12:00 UTC

BECMG 2403/2404 11025G35KT 9999 SCT120 BKN150 QNH2973INS TX13/2400Z TN03/2315Z LAST NO AMDS AFT 2306 NEXT 2514

Becoming

Becoming Conditions expected by Sun, Mar 24, 2019 @ 04:00 UTC

Wind
  • 110° at 25 KTS
  • {Gusting to 35 KTS
Cloud Levels
  • Scattered at 12,000' AGL
  • Broken at 15,000' AGL